Time;durP1;ratioP1;P1;durP2;ratioP2;P2;SDS_P1;SDS_P2;PMS_P1;PMS_P2;Temp;Humidity;BMP_temperature;BMP_pressure;BME280_temperature;BME280_humidity;BME280_pressure;Samples;Min_cycle;Max_cycle;Signal;HPM_P1;HPM_P2
2021/01/30 00:01:06;;;;;;;15.67;4.13;;;9.10;99.90;;;;;;6237668;23;20199;-86
2021/01/30 00:03:49;;;;;;;15.13;3.83;;;9.20;99.90;;;;;;6239779;23;20188;-88
2021/01/30 00:11:33;;;;;;;19.60;3.90;;;9.30;99.90;;;;;;6259296;22;20257;-87
2021/01/30 00:19:41;;;;;;;14.07;3.97;;;9.30;99.90;;;;;;6230908;22;20221;-86
2021/01/30 00:22:21;;;;;;;19.00;5.07;;;9.30;99.90;;;;;;6245016;23;20186;-86
2021/01/30 00:24:50;;;;;;;18.80;5.10;;;9.20;99.90;;;;;;6242535;23;20194;-86
2021/01/30 00:27:23;;;;;;;23.37;5.23;;;9.40;99.90;;;;;;6241699;23;20191;-86
2021/01/30 00:32:55;;;;;;;21.70;5.57;;;9.50;99.90;;;;;;6208197;23;20159;-87
2021/01/30 00:55:04;;;;;;;23.17;5.93;;;9.50;99.90;;;;;;6274648;22;20201;-87
2021/01/30 01:05:37;;;;;;;26.87;6.07;;;9.60;99.90;;;;;;6231108;22;20253;-90
2021/01/30 01:30:37;;;;;;;21.77;5.63;;;9.30;99.90;;;;;;6222699;22;20244;31
2021/01/30 01:51:30;;;;;;;24.43;6.60;;;9.40;99.90;;;;;;6279512;22;20232;-86
2021/01/30 01:54:02;;;;;;;29.73;6.83;;;9.40;99.90;;;;;;6239402;23;20181;-85
2021/01/30 01:56:39;;;;;;;30.77;6.73;;;9.40;99.90;;;;;;6236511;22;20206;-86
2021/01/30 02:02:01;;;;;;;31.63;7.67;;;9.20;99.90;;;;;;6239625;22;20210;-87
2021/01/30 02:08:31;;;;;;;27.27;6.50;;;9.10;99.90;;;;;;6238026;22;20210;-88
2021/01/30 02:33:43;;;;;;;30.30;6.70;;;8.90;99.90;;;;;;6223716;23;20222;-88
2021/01/30 03:10:31;;;;;;;40.47;7.27;;;9.10;99.90;;;;;;6216725;22;20206;-94
2021/01/30 03:13:07;;;;;;;33.37;6.87;;;9.00;99.90;;;;;;6216464;23;20194;-92
2021/01/30 03:15:37;;;;;;;39.27;7.87;;;9.10;99.90;;;;;;6215832;23;20320;-92
2021/01/30 03:18:07;;;;;;;38.80;7.20;;;9.10;99.90;;;;;;6216408;23;20670;-92
2021/01/30 03:26:52;;;;;;;24.70;11.10;;;9.30;99.90;;;;;;6277511;22;20220;31
2021/01/30 03:32:15;;;;;;;26.43;14.90;;;8.40;99.90;;;;;;6177957;23;20172;-87
2021/01/30 03:34:49;;;;;;;23.70;14.63;;;8.50;99.90;;;;;;6164157;23;20196;-87
2021/01/30 03:37:19;;;;;;;19.60;12.67;;;8.50;99.90;;;;;;6144635;23;20186;-87
2021/01/30 03:39:47;;;;;;;16.80;12.07;;;8.40;99.90;;;;;;6117476;23;20232;-87
2021/01/30 03:42:28;;;;;;;21.63;13.83;;;8.30;99.90;;;;;;6145413;23;20204;-87
2021/01/30 03:44:58;;;;;;;20.67;13.40;;;8.20;99.90;;;;;;6145296;23;20196;-87
2021/01/30 03:47:31;;;;;;;23.63;14.37;;;8.10;99.90;;;;;;6147924;23;20176;-87
2021/01/30 03:50:08;;;;;;;19.60;14.30;;;8.00;99.90;;;;;;6147541;23;20173;-86
2021/01/30 04:03:13;;;;;;;12.37;10.60;;;7.90;99.90;;;;;;6261213;23;20166;-86
2021/01/30 04:12:23;;;;;;;10.07;9.00;;;7.80;99.90;;;;;;6270421;22;20201;-87
2021/01/30 04:18:24;;;;;;;11.07;10.07;;;7.50;99.90;;;;;;6256040;23;20225;-87
2021/01/30 04:21:01;;;;;;;12.27;10.27;;;7.30;99.90;;;;;;6208782;23;20211;-86
2021/01/30 04:23:40;;;;;;;12.90;11.77;;;7.40;99.90;;;;;;6208842;23;20167;-86
2021/01/30 04:26:12;;;;;;;14.30;12.73;;;7.30;99.90;;;;;;6207138;23;20191;-86
2021/01/30 04:28:40;;;;;;;14.60;13.07;;;7.10;99.90;;;;;;6206012;23;20201;-87
2021/01/30 04:31:08;;;;;;;18.47;16.00;;;7.00;99.90;;;;;;6207026;23;20301;-86
2021/01/30 04:33:44;;;;;;;19.20;16.30;;;7.00;99.90;;;;;;6210616;23;20159;-86
2021/01/30 04:36:21;;;;;;;24.80;17.20;;;6.90;99.90;;;;;;6226694;22;20200;-86
2021/01/30 04:38:52;;;;;;;18.50;15.93;;;6.80;99.90;;;;;;6244947;22;20173;-86
2021/01/30 04:41:35;;;;;;;25.13;17.87;;;6.50;99.90;;;;;;6219079;22;20190;-86
2021/01/30 04:44:10;;;;;;;22.87;17.37;;;6.10;99.90;;;;;;6244976;22;20185;-86
2021/01/30 04:46:52;;;;;;;21.70;17.60;;;5.80;99.90;;;;;;6244685;22;20392;-86
2021/01/30 04:49:39;;;;;;;22.93;17.87;;;5.70;99.90;;;;;;6245150;22;20150;-86
2021/01/30 04:52:11;;;;;;;23.57;16.67;;;5.80;99.90;;;;;;6244715;22;20178;-85
2021/01/30 04:55:01;;;;;;;22.23;14.53;;;5.80;99.90;;;;;;6244405;22;20205;-86
2021/01/30 04:57:40;;;;;;;17.27;13.67;;;5.70;99.90;;;;;;6239240;23;20463;-86
2021/01/30 05:00:26;;;;;;;21.67;14.77;;;5.70;99.90;;;;;;6217620;23;20443;-86
2021/01/30 05:03:07;;;;;;;20.30;15.10;;;5.50;99.90;;;;;;6242727;23;20412;-86
2021/01/30 05:05:38;;;;;;;19.47;13.60;;;5.50;99.90;;;;;;6242972;23;20436;-87
2021/01/30 05:08:15;;;;;;;19.50;13.93;;;5.40;99.90;;;;;;6242439;23;20403;-86
2021/01/30 05:10:51;;;;;;;19.37;13.10;;;5.30;99.90;;;;;;6243141;23;20417;-87
2021/01/30 05:13:23;;;;;;;19.93;13.47;;;5.10;99.90;;;;;;6242685;23;20563;-85
2021/01/30 05:16:07;;;;;;;19.00;14.70;;;5.10;99.90;;;;;;6242195;23;20424;-86
2021/01/30 05:18:42;;;;;;;17.77;14.17;;;5.30;99.90;;;;;;6242835;23;20419;-86
2021/01/30 05:21:21;;;;;;;21.40;14.73;;;5.10;99.90;;;;;;6242667;23;20465;-87
2021/01/30 05:30:10;;;;;;;24.17;16.87;;;4.90;99.90;;;;;;6217586;23;20454;-86
2021/01/30 05:32:50;;;;;;;24.60;15.93;;;4.70;99.90;;;;;;6242752;23;20400;-87
2021/01/30 05:35:28;;;;;;;23.67;15.23;;;4.60;99.90;;;;;;6243033;23;20456;-86
2021/01/30 05:38:06;;;;;;;20.87;15.00;;;4.60;99.90;;;;;;6242624;23;20411;-86
2021/01/30 05:40:43;;;;;;;19.43;14.93;;;4.80;99.90;;;;;;6242359;22;20432;-87
2021/01/30 05:43:20;;;;;;;22.03;14.83;;;4.60;99.90;;;;;;6240313;23;20412;-87
2021/01/30 05:46:23;;;;;;;23.13;15.00;;;4.60;99.90;;;;;;6240190;22;20439;-87
2021/01/30 05:49:00;;;;;;;21.37;15.13;;;4.60;99.90;;;;;;6203012;22;20396;-87
2021/01/30 05:54:45;;;;;;;20.57;14.87;;;4.50;99.90;;;;;;6242343;22;20407;-87
2021/01/30 06:00:03;;;;;;;23.33;16.93;;;4.50;99.90;;;;;;6237628;22;20512;-87
2021/01/30 06:05:19;;;;;;;19.50;15.30;;;4.40;99.90;;;;;;6235655;23;20420;-87
2021/01/30 06:07:53;;;;;;;23.07;17.03;;;4.40;99.90;;;;;;6235516;23;20403;-86
2021/01/30 06:10:32;;;;;;;21.57;15.97;;;4.40;99.90;;;;;;6209291;23;20405;-87
2021/01/30 06:13:30;;;;;;;22.23;15.70;;;4.40;99.90;;;;;;6235453;23;20438;-87
2021/01/30 06:16:02;;;;;;;22.23;13.50;;;4.40;99.90;;;;;;6230528;23;20410;-87
2021/01/30 06:18:46;;;;;;;17.90;13.00;;;4.30;99.90;;;;;;6234332;23;20385;-87
2021/01/30 06:21:22;;;;;;;19.43;12.93;;;4.10;99.90;;;;;;6232996;23;20482;-87
2021/01/30 06:24:09;;;;;;;17.73;13.37;;;4.10;99.90;;;;;;6240837;23;20382;-87
2021/01/30 06:26:44;;;;;;;16.53;11.87;;;4.00;99.90;;;;;;6241354;22;20419;-87
2021/01/30 06:29:32;;;;;;;17.13;14.17;;;4.10;99.90;;;;;;6241603;23;20430;-86
2021/01/30 06:32:12;;;;;;;16.90;12.03;;;4.10;99.90;;;;;;6241802;23;20411;-87
2021/01/30 06:35:14;;;;;;;18.63;12.73;;;4.10;99.90;;;;;;6241630;23;20435;-87
2021/01/30 06:37:50;;;;;;;14.73;12.37;;;4.20;99.90;;;;;;6240063;23;20468;-87
2021/01/30 06:40:51;;;;;;;16.50;12.13;;;4.10;99.90;;;;;;6239934;23;20439;-87
2021/01/30 06:43:29;;;;;;;16.03;12.43;;;4.00;99.90;;;;;;6241435;23;20406;-87
2021/01/30 06:46:07;;;;;;;16.83;12.07;;;4.10;99.90;;;;;;6242090;23;20471;-86
2021/01/30 06:48:39;;;;;;;17.35;12.77;;;4.10;99.90;;;;;;6241064;23;20432;-87
2021/01/30 06:51:55;;;;;;;17.87;12.70;;;4.10;99.90;;;;;;6241015;22;20654;-86
2021/01/30 06:54:27;;;;;;;14.37;11.33;;;4.30;99.90;;;;;;6238472;23;20455;-87
2021/01/30 07:00:03;;;;;;;16.80;12.03;;;4.10;99.90;;;;;;6237902;22;20451;-87
2021/01/30 07:12:30;;;;;;;12.60;9.90;;;3.90;99.90;;;;;;6241345;22;20463;-88
2021/01/30 07:15:34;;;;;;;12.33;10.00;;;4.10;99.90;;;;;;6215976;23;20427;-88
2021/01/30 07:21:50;;;;;;;10.10;9.10;;;3.80;99.90;;;;;;6246576;22;20469;-87
2021/01/30 07:24:36;;;;;;;9.87;8.57;;;3.80;99.90;;;;;;6242166;22;20420;-86
2021/01/30 07:30:35;;;;;;;13.13;9.77;;;3.50;99.90;;;;;;6217189;22;20427;-86
2021/01/30 07:33:45;;;;;;;11.17;9.90;;;3.60;99.90;;;;;;6224893;22;20465;-87
2021/01/30 07:36:59;;;;;;;12.67;10.10;;;3.60;99.90;;;;;;6212743;23;20425;-88
2021/01/30 07:43:20;;;;;;;11.43;10.20;;;3.80;99.90;;;;;;6235934;22;20451;-87
2021/01/30 07:45:52;;;;;;;12.57;10.43;;;3.80;99.90;;;;;;6222781;22;20479;-87
2021/01/30 07:48:30;;;;;;;12.07;9.97;;;3.70;99.90;;;;;;6209028;23;20373;-87
2021/01/30 07:51:29;;;;;;;11.73;10.13;;;3.80;99.90;;;;;;6208581;23;20393;-87
2021/01/30 07:53:57;;;;;;;14.00;10.63;;;3.70;99.90;;;;;;6206284;23;20724;-86
2021/01/30 07:57:05;;;;;;;14.30;11.80;;;3.80;99.90;;;;;;6213595;23;20436;-87
2021/01/30 08:03:28;;;;;;;14.97;11.33;;;3.70;99.90;;;;;;6237541;22;20464;-86
2021/01/30 08:06:09;;;;;;;12.27;10.27;;;3.50;99.90;;;;;;6229808;23;20431;-86
2021/01/30 08:08:40;;;;;;;13.87;11.33;;;3.50;99.90;;;;;;6235783;23;20408;-86
2021/01/30 08:11:22;;;;;;;12.47;11.07;;;3.70;99.90;;;;;;6236400;23;20435;-86
2021/01/30 08:14:15;;;;;;;13.40;11.30;;;3.50;99.90;;;;;;6236501;23;20491;-86
2021/01/30 08:17:02;;;;;;;15.80;10.50;;;3.40;99.90;;;;;;6236732;23;20424;-86
2021/01/30 08:19:45;;;;;;;14.40;11.33;;;3.40;99.90;;;;;;6237721;23;20407;-87
2021/01/30 08:22:20;;;;;;;11.57;9.37;;;3.40;99.90;;;;;;6236234;23;20408;-86
2021/01/30 08:25:12;;;;;;;12.17;10.30;;;3.50;99.90;;;;;;6236389;23;20458;-86
2021/01/30 08:27:44;;;;;;;12.60;10.30;;;3.40;99.90;;;;;;6219520;23;20419;-86
2021/01/30 08:30:22;;;;;;;13.43;10.67;;;3.40;99.90;;;;;;6232567;23;20396;-86
2021/01/30 08:33:00;;;;;;;12.37;10.37;;;3.30;99.90;;;;;;6232180;23;20491;-86
2021/01/30 08:35:56;;;;;;;13.07;10.37;;;3.50;99.90;;;;;;6205281;23;20997;-86
2021/01/30 08:38:42;;;;;;;11.20;10.00;;;3.50;99.90;;;;;;6237497;23;20384;-86
2021/01/30 08:41:43;;;;;;;11.90;9.17;;;3.50;99.90;;;;;;6238389;23;20495;-86
2021/01/30 08:44:55;;;;;;;12.03;9.17;;;3.40;99.90;;;;;;6203271;23;20432;-86
2021/01/30 08:47:38;;;;;;;12.03;9.80;;;3.50;99.90;;;;;;6237028;23;20479;-87
2021/01/30 08:51:00;;;;;;;9.60;7.97;;;3.50;99.90;;;;;;6238087;22;20456;-86
2021/01/30 08:53:37;;;;;;;11.17;8.07;;;3.50;99.90;;;;;;6209263;23;20388;-86
2021/01/30 08:56:09;;;;;;;11.03;8.83;;;3.50;99.90;;;;;;6242887;22;20451;-87
2021/01/30 08:59:07;;;;;;;11.50;8.77;;;3.50;99.90;;;;;;6243333;23;20389;-87
2021/01/30 09:01:52;;;;;;;11.87;9.53;;;3.60;99.90;;;;;;6224567;23;20424;-87
2021/01/30 09:04:42;;;;;;;9.90;8.47;;;3.70;99.90;;;;;;6241788;22;20436;-86
2021/01/30 09:07:58;;;;;;;9.97;8.37;;;3.60;99.90;;;;;;6242036;23;20404;-86
2021/01/30 09:16:59;;;;;;;9.27;7.00;;;3.50;99.90;;;;;;6240164;23;20467;-87
2021/01/30 09:22:32;;;;;;;10.70;7.83;;;3.50;99.90;;;;;;6240024;23;20412;-86
2021/01/30 09:31:16;;;;;;;8.70;7.60;;;3.60;99.90;;;;;;6229151;22;20202;-86
2021/01/30 09:34:02;;;;;;;11.43;10.32;;;3.60;99.90;;;;;;6205272;23;20403;-86
2021/01/30 09:36:38;;;;;;;9.33;8.33;;;3.30;99.90;;;;;;6201511;23;20175;-86
2021/01/30 09:39:42;;;;;;;8.63;7.30;;;3.40;99.90;;;;;;6218072;22;20452;-87
2021/01/30 09:42:36;;;;;;;9.13;7.10;;;3.50;99.90;;;;;;6235522;23;20388;-88
2021/01/30 09:45:51;;;;;;;9.50;7.97;;;3.50;99.90;;;;;;6238316;23;20432;-87
2021/01/30 09:48:26;;;;;;;9.83;8.10;;;3.60;99.90;;;;;;6238342;23;20403;-87
2021/01/30 09:51:20;;;;;;;12.13;8.97;;;3.50;99.90;;;;;;6230402;23;20493;-87
2021/01/30 09:54:00;;;;;;;11.67;8.47;;;3.50;99.90;;;;;;6239188;23;20412;-86
2021/01/30 09:56:35;;;;;;;14.23;9.70;;;3.50;99.90;;;;;;6238377;23;20430;-86
2021/01/30 09:59:05;;;;;;;11.97;9.73;;;3.50;99.90;;;;;;6235370;22;20466;-86
2021/01/30 10:01:39;;;;;;;14.50;10.53;;;3.50;99.90;;;;;;6206811;23;20529;-87
2021/01/30 10:04:27;;;;;;;17.23;11.97;;;3.50;99.90;;;;;;6230769;23;20432;-85
2021/01/30 10:07:04;;;;;;;16.10;11.27;;;3.50;99.90;;;;;;6230893;23;20412;-85
2021/01/30 10:09:42;;;;;;;17.50;12.97;;;3.20;99.90;;;;;;6233557;23;20392;-86
2021/01/30 10:12:09;;;;;;;20.30;13.27;;;3.30;99.90;;;;;;6231980;23;20480;-86
2021/01/30 10:14:38;;;;;;;18.67;12.93;;;3.30;99.90;;;;;;6205726;23;20434;-86
2021/01/30 10:17:12;;;;;;;19.27;13.77;;;3.30;99.90;;;;;;6232444;23;20419;-85
2021/01/30 10:19:40;;;;;;;18.80;14.10;;;3.20;99.90;;;;;;6229456;23;20428;-86
2021/01/30 10:22:17;;;;;;;20.20;14.67;;;3.20;99.90;;;;;;6230656;23;20457;-86
2021/01/30 10:24:44;;;;;;;18.83;13.87;;;3.00;99.90;;;;;;6232977;23;20428;-85
2021/01/30 10:27:15;;;;;;;21.10;14.80;;;3.10;99.90;;;;;;6231715;23;21064;-86
2021/01/30 10:29:42;;;;;;;20.87;14.73;;;2.90;99.90;;;;;;6230000;23;20755;-86
2021/01/30 10:32:14;;;;;;;19.20;14.50;;;3.00;99.90;;;;;;6229446;23;20416;-86
2021/01/30 10:34:53;;;;;;;21.03;14.73;;;2.90;99.90;;;;;;6228917;23;20462;-86
2021/01/30 10:37:31;;;;;;;22.20;15.20;;;3.10;99.90;;;;;;6230193;23;20407;-86
2021/01/30 10:40:02;;;;;;;25.10;22.38;;;3.10;99.90;;;;;;6232332;23;20391;-86
2021/01/30 10:42:33;;;;;;;21.30;16.17;;;3.10;99.90;;;;;;6235958;23;20203;-86
2021/01/30 10:45:05;;;;;;;22.13;16.67;;;3.20;99.90;;;;;;6235274;23;20423;-85
2021/01/30 10:47:50;;;;;;;20.50;15.57;;;3.40;99.90;;;;;;6237678;23;20408;-88
2021/01/30 10:50:28;;;;;;;20.80;14.33;;;3.20;99.90;;;;;;6239112;23;20419;-87
2021/01/30 10:52:55;;;;;;;21.47;15.13;;;3.30;99.90;;;;;;6239780;22;20443;-85
2021/01/30 10:55:39;;;;;;;21.17;15.80;;;3.30;99.90;;;;;;6240121;23;20989;-86
2021/01/30 10:58:21;;;;;;;24.43;16.80;;;3.20;99.90;;;;;;6239346;23;20384;-84
2021/01/30 11:01:04;;;;;;;24.77;17.50;;;3.00;99.90;;;;;;6239451;23;20440;-85
2021/01/30 11:03:57;;;;;;;21.83;15.73;;;2.90;99.90;;;;;;6239050;23;20396;-85
2021/01/30 11:06:32;;;;;;;27.30;19.10;;;2.90;99.90;;;;;;6210114;23;20405;-85
2021/01/30 11:09:13;;;;;;;29.90;18.87;;;3.00;99.90;;;;;;6237683;23;20384;-85
2021/01/30 11:11:40;;;;;;;28.47;19.53;;;3.00;99.90;;;;;;6237428;23;20442;-85
2021/01/30 11:14:15;;;;;;;27.57;19.37;;;3.00;99.90;;;;;;6237732;23;20428;-85
2021/01/30 11:19:28;;;;;;;30.30;21.40;;;3.20;99.90;;;;;;6235933;22;20407;-88
2021/01/30 11:22:04;;;;;;;31.97;22.80;;;3.20;99.90;;;;;;6186665;23;20487;-88
2021/01/30 11:24:33;;;;;;;30.30;20.27;;;3.10;99.90;;;;;;6186551;23;20830;-90
2021/01/30 11:27:00;;;;;;;31.10;21.53;;;3.10;99.90;;;;;;6187573;23;20488;-90
2021/01/30 11:29:39;;;;;;;34.97;22.93;;;3.10;99.90;;;;;;6188794;23;20419;-89
2021/01/30 11:32:07;;;;;;;32.43;22.67;;;3.20;99.90;;;;;;6189057;23;20492;-89
2021/01/30 11:34:34;;;;;;;33.20;24.07;;;3.10;99.90;;;;;;6189017;23;20512;-90
2021/01/30 11:37:03;;;;;;;34.77;23.53;;;3.10;99.90;;;;;;6190006;23;20425;-90
2021/01/30 11:39:32;;;;;;;33.47;22.13;;;3.10;99.90;;;;;;6188310;23;20443;-91
2021/01/30 11:41:59;;;;;;;30.80;21.23;;;3.20;99.90;;;;;;6188537;23;20535;-90
2021/01/30 11:44:26;;;;;;;32.20;21.17;;;3.10;99.90;;;;;;6188928;23;21003;-90
2021/01/30 11:46:53;;;;;;;35.20;25.27;;;3.10;99.90;;;;;;6188275;23;20487;-90
2021/01/30 11:49:19;;;;;;;34.83;23.80;;;3.10;99.90;;;;;;6192961;23;20424;-88
2021/01/30 11:51:46;;;;;;;34.17;23.43;;;3.10;99.90;;;;;;6190782;23;20422;-88
2021/01/30 11:54:14;;;;;;;36.17;23.67;;;3.20;99.90;;;;;;6188864;23;20436;-92
2021/01/30 11:56:41;;;;;;;32.73;22.43;;;3.20;99.90;;;;;;6188764;23;20433;-89
2021/01/30 11:59:09;;;;;;;31.87;22.50;;;3.10;99.90;;;;;;6188582;23;20416;-90
2021/01/30 12:01:36;;;;;;;34.20;23.13;;;3.00;99.90;;;;;;6188884;23;20484;-91
2021/01/30 12:04:02;;;;;;;33.23;24.60;;;3.10;99.90;;;;;;6188560;23;20413;-87
2021/01/30 12:06:29;;;;;;;32.87;22.87;;;3.10;99.90;;;;;;6195264;23;20381;-88
2021/01/30 12:08:55;;;;;;;33.50;23.30;;;3.10;99.90;;;;;;6190051;23;20393;-87
2021/01/30 12:11:23;;;;;;;33.50;23.07;;;3.10;99.90;;;;;;6190415;23;20404;-87
2021/01/30 12:13:50;;;;;;;35.00;24.67;;;3.10;99.90;;;;;;6189601;23;20393;-87
2021/01/30 12:16:22;;;;;;;33.27;23.27;;;2.90;99.90;;;;;;6190158;23;20443;-90
2021/01/30 12:18:48;;;;;;;35.43;24.73;;;3.00;99.90;;;;;;6187975;23;20432;-90
2021/01/30 12:21:14;;;;;;;37.13;25.03;;;3.20;99.90;;;;;;6164055;23;20488;-92
2021/01/30 12:23:41;;;;;;;35.83;25.40;;;3.40;99.90;;;;;;6159317;23;20820;-88
2021/01/30 12:26:07;;;;;;;36.80;25.87;;;3.40;99.90;;;;;;6158512;23;20504;-89
2021/01/30 12:28:40;;;;;;;38.40;26.30;;;3.40;99.90;;;;;;6160748;23;20418;-90
2021/01/30 12:31:20;;;;;;;37.57;26.33;;;3.40;99.90;;;;;;6182736;23;20409;-89
2021/01/30 12:33:47;;;;;;;35.47;23.47;;;3.40;99.90;;;;;;6172042;23;20530;-90
2021/01/30 12:36:24;;;;;;;37.07;27.13;;;3.40;99.90;;;;;;6233208;23;20408;-90
2021/01/30 12:38:51;;;;;;;36.57;23.87;;;3.30;99.90;;;;;;6208915;23;20408;-92
2021/01/30 12:41:18;;;;;;;36.37;25.23;;;3.40;99.90;;;;;;6231089;23;20448;-91
2021/01/30 12:43:46;;;;;;;31.30;23.07;;;3.40;99.90;;;;;;6227712;23;20443;-92
2021/01/30 12:46:13;;;;;;;33.60;23.63;;;3.50;99.90;;;;;;6232491;23;20415;-91
2021/01/30 12:48:40;;;;;;;32.33;24.07;;;3.50;99.90;;;;;;6232872;23;20712;-90
2021/01/30 12:51:07;;;;;;;34.85;24.55;;;3.60;99.90;;;;;;6230245;23;20847;-91
2021/01/30 12:53:34;;;;;;;31.10;22.67;;;3.60;99.90;;;;;;6229829;23;20737;-92
2021/01/30 12:56:02;;;;;;;32.87;24.30;;;3.80;99.90;;;;;;6229407;23;20432;-92
2021/01/30 12:58:29;;;;;;;32.23;24.50;;;3.70;99.90;;;;;;6228538;23;20405;-91
2021/01/30 13:01:05;;;;;;;32.23;24.13;;;3.60;99.90;;;;;;6227214;23;20459;-91
2021/01/30 13:03:32;;;;;;;29.83;22.43;;;3.50;99.90;;;;;;6226074;23;20423;-92
2021/01/30 13:05:58;;;;;;;30.80;22.50;;;3.50;99.90;;;;;;6226261;23;20420;-92
2021/01/30 13:08:25;;;;;;;30.67;23.07;;;3.50;99.90;;;;;;6199500;23;20410;-91
2021/01/30 13:10:52;;;;;;;31.30;23.30;;;3.60;99.90;;;;;;6226871;23;20404;-91
2021/01/30 13:13:18;;;;;;;27.47;20.40;;;3.60;99.90;;;;;;6229245;23;20408;-91
2021/01/30 13:18:31;;;;;;;34.10;24.57;;;3.40;99.90;;;;;;6223920;23;20461;-89
2021/01/30 13:20:58;;;;;;;31.10;23.17;;;3.50;99.90;;;;;;6216895;23;20503;-90
2021/01/30 13:23:24;;;;;;;30.57;21.80;;;3.60;99.90;;;;;;6218161;23;20499;-89
2021/01/30 13:25:51;;;;;;;33.37;24.37;;;3.60;99.90;;;;;;6217262;23;20463;-90
2021/01/30 13:28:17;;;;;;;31.00;22.70;;;3.70;99.90;;;;;;6217352;23;20455;-91
2021/01/30 13:30:44;;;;;;;30.63;23.20;;;3.60;99.90;;;;;;6217430;23;20487;-90
2021/01/30 13:33:11;;;;;;;29.13;22.70;;;3.50;99.90;;;;;;6217833;23;20805;-88
2021/01/30 13:35:38;;;;;;;29.53;23.57;;;3.60;99.90;;;;;;6192209;23;20457;-90
2021/01/30 13:38:04;;;;;;;28.57;21.70;;;3.70;99.90;;;;;;6187411;23;20884;-90
2021/01/30 13:40:31;;;;;;;29.80;22.87;;;3.60;99.90;;;;;;6186713;23;20447;-89
2021/01/30 13:42:57;;;;;;;30.73;23.40;;;3.50;99.90;;;;;;6187141;23;20413;-90
2021/01/30 13:45:24;;;;;;;31.60;23.93;;;3.60;99.90;;;;;;6187039;23;21114;-90
2021/01/30 13:47:50;;;;;;;28.47;21.70;;;3.50;99.90;;;;;;6186752;23;20420;-91
2021/01/30 13:50:18;;;;;;;30.23;22.97;;;3.60;99.90;;;;;;6187242;23;20717;-90
2021/01/30 13:52:45;;;;;;;29.20;22.07;;;3.80;99.90;;;;;;6186884;23;20471;-88
2021/01/30 13:55:13;;;;;;;28.20;21.33;;;3.50;99.90;;;;;;6187129;23;20491;-91
2021/01/30 13:57:40;;;;;;;30.10;22.20;;;3.40;99.90;;;;;;6187485;23;20409;-90
2021/01/30 14:00:08;;;;;;;26.43;21.40;;;3.50;99.90;;;;;;6187576;23;20752;-92
2021/01/30 14:02:36;;;;;;;27.00;21.60;;;3.50;99.90;;;;;;6189707;23;20508;-90
2021/01/30 14:05:06;;;;;;;26.70;20.90;;;3.60;99.90;;;;;;6157094;23;20422;-90
2021/01/30 14:07:32;;;;;;;28.20;21.37;;;3.60;99.90;;;;;;6157212;23;20402;-90
2021/01/30 14:10:00;;;;;;;27.30;21.27;;;3.40;99.90;;;;;;6157359;23;20884;-90
2021/01/30 14:12:26;;;;;;;28.77;20.87;;;3.60;99.90;;;;;;6157606;23;20437;-91
2021/01/30 14:14:52;;;;;;;26.00;19.73;;;3.60;99.90;;;;;;6157448;23;20488;-90
2021/01/30 14:17:19;;;;;;;27.97;22.50;;;3.50;99.90;;;;;;6157642;23;20409;-91
2021/01/30 14:19:45;;;;;;;28.60;23.43;;;3.60;99.90;;;;;;6158376;23;20410;-90
2021/01/30 14:22:11;;;;;;;29.50;23.30;;;3.70;99.90;;;;;;6157609;23;20458;-90
2021/01/30 14:24:38;;;;;;;30.87;21.70;;;3.60;99.90;;;;;;6157325;23;20509;-90
2021/01/30 14:27:06;;;;;;;27.57;21.30;;;3.50;99.90;;;;;;6157826;23;20481;-90
2021/01/30 14:29:33;;;;;;;26.97;21.67;;;3.50;99.90;;;;;;6157474;23;20422;-89
2021/01/30 14:31:59;;;;;;;27.70;22.13;;;3.60;99.90;;;;;;6157576;23;20425;-90
2021/01/30 14:34:28;;;;;;;27.27;21.63;;;3.50;99.90;;;;;;6156927;23;20445;-91
2021/01/30 14:36:54;;;;;;;29.23;22.63;;;3.50;99.90;;;;;;6157872;23;20416;-91
2021/01/30 14:39:21;;;;;;;28.37;22.63;;;3.50;99.90;;;;;;6156791;23;20416;-91
2021/01/30 14:41:49;;;;;;;27.50;21.80;;;3.50;99.90;;;;;;6166456;23;20529;-91
2021/01/30 14:44:32;;;;;;;28.73;21.90;;;3.50;99.90;;;;;;6174672;23;20465;-92
2021/01/30 14:49:40;;;;;;;30.63;27.52;;;3.60;99.90;;;;;;6164005;23;20434;-93
2021/01/30 14:52:18;;;;;;;27.43;22.10;;;3.60;99.90;;;;;;6164843;23;20176;-92
2021/01/30 14:54:46;;;;;;;28.53;22.53;;;3.70;99.90;;;;;;6167991;23;20980;-92
2021/01/30 14:57:12;;;;;;;27.77;21.07;;;3.50;99.90;;;;;;6170595;23;20405;-91
2021/01/30 14:59:46;;;;;;;28.77;21.43;;;3.60;99.90;;;;;;6171725;23;20846;-92
2021/01/30 15:02:14;;;;;;;28.33;21.07;;;3.60;99.90;;;;;;6174318;23;20894;-92
2021/01/30 15:07:14;;;;;;;33.53;23.00;;;3.50;99.90;;;;;;6221283;22;20451;-91
2021/01/30 15:09:41;;;;;;;28.03;21.57;;;3.40;99.90;;;;;;6199196;23;20412;-91
2021/01/30 15:12:08;;;;;;;29.20;22.60;;;3.30;99.90;;;;;;6199690;23;20448;-90
2021/01/30 15:14:35;;;;;;;28.97;23.33;;;3.30;99.90;;;;;;6199293;23;20441;-93
2021/01/30 15:17:03;;;;;;;28.60;22.80;;;3.40;99.90;;;;;;6203428;23;20412;-91
2021/01/30 15:19:51;;;;;;;27.13;20.97;;;3.40;99.90;;;;;;6200738;23;20413;-92
2021/01/30 15:22:18;;;;;;;26.93;20.53;;;3.50;99.90;;;;;;6200533;23;20445;-93
2021/01/30 15:25:01;;;;;;;32.57;22.13;;;3.40;99.90;;;;;;6203847;23;20429;-91
2021/01/30 15:27:28;;;;;;;27.63;22.30;;;3.30;99.90;;;;;;6177102;23;20444;-91
2021/01/30 15:29:56;;;;;;;28.33;22.57;;;3.30;99.90;;;;;;6202669;23;20405;-91
2021/01/30 15:32:24;;;;;;;25.23;21.20;;;3.30;99.90;;;;;;6200367;23;20421;-92
2021/01/30 15:34:50;;;;;;;27.13;21.17;;;3.30;99.90;;;;;;6204440;23;20429;-91
2021/01/30 15:37:21;;;;;;;27.93;20.50;;;3.30;99.90;;;;;;6179495;23;20441;-92
2021/01/30 15:42:48;;;;;;;27.23;21.97;;;3.20;99.90;;;;;;6199412;23;20428;-93
2021/01/30 15:45:15;;;;;;;27.73;21.73;;;3.30;99.90;;;;;;6199875;23;20425;-92
2021/01/30 15:54:00;;;;;;;25.63;20.50;;;3.60;99.90;;;;;;6200927;23;20417;-92
2021/01/30 15:56:31;;;;;;;27.83;22.83;;;3.50;99.90;;;;;;6179411;23;20401;-91
2021/01/30 15:59:03;;;;;;;28.03;22.33;;;3.60;99.90;;;;;;6205687;23;20405;-92
2021/01/30 16:01:30;;;;;;;27.20;21.57;;;3.40;99.90;;;;;;6204120;23;20471;-92
2021/01/30 16:03:59;;;;;;;27.47;20.40;;;3.50;99.90;;;;;;6179780;23;20433;-89
2021/01/30 16:06:35;;;;;;;27.90;22.03;;;3.30;99.90;;;;;;6206452;23;20416;-91
2021/01/30 16:09:07;;;;;;;25.90;21.00;;;3.30;99.90;;;;;;6204246;23;20440;-90
2021/01/30 16:11:37;;;;;;;27.80;22.03;;;3.30;99.90;;;;;;6179310;23;20414;-91
2021/01/30 16:14:05;;;;;;;27.20;21.70;;;3.30;99.90;;;;;;6207762;23;20432;-91
2021/01/30 16:16:37;;;;;;;30.60;21.17;;;3.20;99.90;;;;;;6207508;23;20405;-90
2021/01/30 16:19:09;;;;;;;29.23;20.57;;;3.10;99.90;;;;;;6207123;23;20902;-91
2021/01/30 16:21:38;;;;;;;27.77;20.47;;;3.10;99.90;;;;;;6207142;23;20452;-91
2021/01/30 16:27:03;;;;;;;26.80;21.53;;;3.10;99.90;;;;;;6207014;23;20413;-91
2021/01/30 16:29:30;;;;;;;24.73;20.00;;;3.00;99.90;;;;;;6205689;23;20468;-91
2021/01/30 16:32:00;;;;;;;25.43;21.53;;;3.00;99.90;;;;;;6205419;23;20412;-90
2021/01/30 16:37:53;;;;;;;28.50;20.87;;;3.10;99.90;;;;;;6203365;23;20393;-92
2021/01/30 16:40:27;;;;;;;27.47;21.50;;;3.00;99.90;;;;;;6204980;23;20425;-91
2021/01/30 16:43:01;;;;;;;25.67;20.50;;;3.00;99.90;;;;;;6203491;23;20412;-89
2021/01/30 16:45:28;;;;;;;27.23;22.00;;;3.00;99.90;;;;;;6202035;23;20545;-91
2021/01/30 16:47:56;;;;;;;28.87;22.13;;;2.90;99.90;;;;;;6202752;23;20443;-92
2021/01/30 16:50:24;;;;;;;28.40;21.63;;;2.80;99.90;;;;;;6202758;23;20877;-91
2021/01/30 16:52:55;;;;;;;27.40;20.83;;;2.70;99.90;;;;;;6201066;23;20427;-91
2021/01/30 16:55:24;;;;;;;28.80;22.03;;;2.60;99.90;;;;;;6202267;23;20440;-91
2021/01/30 16:57:52;;;;;;;29.90;23.13;;;2.60;99.90;;;;;;6203205;23;20417;-91
2021/01/30 17:00:28;;;;;;;28.37;21.67;;;2.70;99.90;;;;;;6208438;23;20413;-91
2021/01/30 17:03:12;;;;;;;28.33;22.80;;;2.70;99.90;;;;;;6207019;23;20416;-91
2021/01/30 17:05:39;;;;;;;27.17;20.57;;;2.60;99.90;;;;;;6206507;23;20437;-90
2021/01/30 17:08:20;;;;;;;31.10;22.87;;;2.60;99.90;;;;;;6183943;23;20477;-91
2021/01/30 17:10:48;;;;;;;29.77;22.00;;;2.60;99.90;;;;;;6149396;23;20406;-90
2021/01/30 17:13:17;;;;;;;29.43;22.47;;;2.70;99.90;;;;;;6175873;23;20433;-91
2021/01/30 17:15:45;;;;;;;27.50;22.03;;;2.70;99.90;;;;;;6172055;23;20433;-91
2021/01/30 17:18:13;;;;;;;30.33;21.53;;;2.70;99.90;;;;;;6174319;23;20418;-90
2021/01/30 17:20:40;;;;;;;29.17;21.00;;;2.80;99.90;;;;;;6146255;23;20482;-91
2021/01/30 17:23:08;;;;;;;28.33;22.87;;;2.70;99.90;;;;;;6174621;23;20438;-91
2021/01/30 17:25:45;;;;;;;29.87;21.83;;;2.80;99.90;;;;;;6145707;23;20457;-92
2021/01/30 17:28:13;;;;;;;29.33;22.13;;;2.70;99.90;;;;;;6171898;23;20417;-91
2021/01/30 17:30:39;;;;;;;32.00;24.00;;;2.70;99.90;;;;;;6172647;23;20880;-91
2021/01/30 17:33:07;;;;;;;30.47;24.07;;;2.70;99.90;;;;;;6172470;23;20433;-92
2021/01/30 17:35:37;;;;;;;30.43;21.70;;;2.80;99.90;;;;;;6172768;23;20437;-91